createdAt,value
2022-12-14T00:02:39.008Z,95.00
2022-12-14T00:09:22.500Z,87.50
2022-12-14T00:16:05.844Z,87.10
2022-12-14T00:22:48.678Z,80.30
2022-12-14T00:29:32.046Z,75.50
2022-12-14T00:36:15.143Z,91.40
2022-12-14T00:42:58.024Z,69.10
2022-12-14T00:49:40.808Z,73.30
2022-12-14T00:56:23.738Z,62.40
2022-12-14T01:03:06.538Z,61.80
2022-12-14T01:09:49.708Z,54.50
2022-12-14T01:16:33.075Z,52.20
2022-12-14T01:23:16.159Z,53.30
2022-12-14T01:29:59.774Z,50.70
2022-12-14T01:36:45.873Z,46.00
2022-12-14T01:43:29.531Z,36.80
2022-12-14T01:50:15.645Z,40.70
2022-12-14T01:56:58.632Z,37.10
2022-12-14T02:03:41.995Z,36.40
2022-12-14T02:10:24.808Z,36.50
2022-12-14T02:17:07.755Z,35.90
2022-12-14T02:24:24.004Z,35.20
2022-12-14T02:31:09.738Z,34.50
2022-12-14T02:37:58.897Z,31.70
2022-12-14T02:45:06.118Z,33.80
2022-12-14T02:52:08.124Z,30.20
2022-12-14T02:58:56.661Z,30.70
2022-12-14T03:05:40.095Z,30.80
2022-12-14T03:12:29.005Z,31.00
2022-12-14T03:19:12.328Z,31.80
2022-12-14T03:25:55.150Z,33.20
2022-12-14T03:32:44.043Z,42.00
2022-12-14T03:39:30.176Z,32.30
2022-12-14T03:46:31.612Z,33.50
2022-12-14T03:53:32.646Z,36.00
2022-12-14T04:00:18.704Z,35.60
2022-12-14T04:07:01.497Z,33.40
2022-12-14T04:13:44.043Z,32.60
2022-12-14T04:26:58.167Z,30.80
2022-12-14T04:33:45.612Z,30.30
2022-12-14T04:40:28.734Z,31.60
2022-12-14T04:47:14.782Z,31.30
2022-12-14T04:53:40.553Z,29.90
2022-12-14T05:00:22.933Z,31.70
2022-12-14T05:07:12.026Z,31.60
2022-12-14T05:14:04.703Z,33.90
2022-12-14T05:20:47.858Z,51.50
2022-12-14T05:27:30.825Z,36.60
2022-12-14T05:34:17.248Z,32.20
2022-12-14T05:40:59.743Z,29.80
2022-12-14T05:47:43.108Z,33.70
2022-12-14T05:54:27.065Z,32.20
2022-12-14T06:01:15.473Z,32.20
2022-12-14T06:08:01.901Z,41.30
2022-12-14T06:14:44.825Z,38.60
2022-12-14T06:21:11.371Z,39.50
2022-12-14T06:27:34.245Z,33.40
2022-12-14T06:34:16.604Z,34.00
2022-12-14T06:40:58.873Z,31.60
2022-12-14T06:47:41.965Z,32.80
2022-12-14T06:54:26.833Z,33.00
2022-12-14T07:01:10.165Z,39.80
2022-12-14T07:07:54.293Z,39.40
2022-12-14T07:14:38.772Z,37.60
2022-12-14T07:27:58.845Z,37.00
2022-12-14T07:34:42.402Z,38.50
2022-12-14T07:41:22.092Z,37.40
2022-12-14T07:48:11.372Z,50.70
2022-12-14T07:54:56.670Z,39.50
2022-12-14T08:01:34.236Z,52.40
2022-12-14T08:08:35.689Z,45.50
2022-12-14T08:15:20.171Z,47.40
2022-12-14T08:22:06.034Z,52.70
2022-12-14T08:28:51.195Z,49.00
2022-12-14T09:01:07.008Z,39.70
2022-12-14T09:07:54.997Z,39.50
2022-12-14T09:14:38.744Z,43.60
2022-12-14T09:21:23.234Z,41.30
2022-12-14T09:27:49.287Z,40.20
2022-12-14T09:34:16.010Z,42.30
2022-12-14T09:40:02.952Z,39.60
2022-12-14T09:46:06.992Z,41.80
2022-12-14T09:59:07.887Z,38.00
2022-12-14T10:05:58.112Z,33.40
2022-12-14T10:25:59.361Z,29.00
2022-12-14T10:32:45.598Z,26.60
2022-12-14T10:39:41.977Z,26.60
2022-12-14T10:46:27.999Z,22.80
2022-12-14T10:53:17.062Z,18.70
2022-12-14T11:27:46.092Z,43.70
2022-12-14T11:34:36.157Z,22.80
2022-12-14T11:41:19.254Z,20.90
2022-12-14T11:48:05.959Z,23.50
2022-12-14T11:54:11.368Z,28.10
2022-12-14T12:00:46.976Z,28.30
2022-12-14T12:20:29.163Z,25.30
2022-12-14T12:27:30.755Z,24.10
2022-12-14T12:34:12.256Z,26.70
2022-12-14T12:40:13.062Z,25.70
2022-12-14T12:46:53.444Z,27.90
2022-12-14T12:59:48.233Z,28.90
2022-12-14T13:06:39.880Z,31.90
2022-12-14T13:13:29.400Z,36.20
2022-12-14T13:20:17.025Z,34.10
2022-12-14T13:27:01.226Z,32.70
2022-12-14T13:34:10.768Z,35.30
2022-12-14T13:41:01.149Z,36.10
2022-12-14T13:47:44.423Z,39.00
2022-12-14T13:54:26.651Z,36.10
2022-12-14T14:01:24.952Z,37.00
2022-12-14T14:08:07.670Z,38.10
2022-12-14T14:45:24.309Z,38.20
2022-12-14T14:52:13.691Z,34.20
2022-12-14T14:58:59.621Z,38.90
2022-12-14T15:05:45.688Z,33.80
2022-12-14T15:12:29.296Z,38.10
2022-12-14T15:19:16.322Z,59.70
2022-12-14T15:31:13.214Z,40.00
2022-12-14T15:50:36.513Z,31.70
2022-12-14T15:57:27.386Z,39.80
2022-12-14T16:04:24.155Z,42.40
2022-12-14T16:11:10.636Z,44.60
2022-12-14T16:18:01.964Z,48.50
2022-12-14T17:05:56.709Z,43.40
2022-12-14T17:12:56.358Z,37.10
2022-12-14T17:19:51.131Z,56.90
2022-12-14T17:33:08.241Z,53.60
2022-12-14T17:39:55.231Z,57.00
2022-12-14T17:46:41.400Z,51.50
2022-12-14T17:53:29.474Z,51.50
2022-12-14T18:00:24.052Z,54.40
2022-12-14T18:07:37.622Z,52.20
2022-12-14T18:13:23.940Z,55.00
2022-12-14T18:18:49.348Z,53.30
2022-12-14T18:24:24.170Z,56.20
2022-12-14T18:44:01.260Z,61.90
2022-12-14T18:50:15.165Z,56.60
2022-12-14T19:03:45.994Z,54.90
2022-12-14T19:10:31.809Z,51.80
2022-12-14T19:17:19.792Z,52.90
2022-12-14T19:24:05.200Z,53.20
2022-12-14T19:30:51.516Z,62.20
2022-12-14T19:37:36.629Z,57.20
2022-12-14T19:43:59.837Z,54.80
2022-12-14T19:49:42.951Z,51.90
2022-12-14T20:03:20.025Z,52.50
2022-12-14T20:10:06.118Z,49.20
2022-12-14T20:16:56.763Z,55.40
2022-12-14T20:23:44.441Z,53.20
2022-12-14T20:30:29.330Z,53.80
2022-12-14T20:37:15.267Z,50.30
2022-12-14T20:44:02.309Z,45.80
2022-12-14T20:50:59.307Z,41.10
2022-12-14T20:57:54.544Z,40.30
2022-12-14T21:04:47.708Z,48.60
2022-12-14T21:11:41.359Z,41.60
2022-12-14T21:18:30.874Z,36.60
2022-12-14T21:25:19.327Z,38.60
2022-12-14T21:32:05.601Z,43.10
2022-12-14T21:38:49.599Z,41.40
2022-12-14T21:45:32.673Z,40.80
2022-12-14T21:52:29.083Z,37.40
2022-12-14T21:59:29.321Z,39.50
2022-12-14T22:06:28.136Z,40.30
2022-12-14T22:13:43.593Z,45.80
2022-12-14T22:40:10.218Z,46.90
2022-12-14T22:46:36.323Z,52.60
2022-12-14T22:58:57.548Z,50.00
2022-12-14T23:05:40.223Z,54.20
2022-12-14T23:12:22.232Z,59.60
2022-12-14T23:19:03.760Z,55.50
2022-12-14T23:25:45.154Z,55.10
2022-12-14T23:32:26.402Z,50.70
2022-12-14T23:39:07.564Z,50.40
2022-12-14T23:45:48.924Z,41.80
2022-12-14T23:52:30.045Z,40.20
2022-12-14T23:59:13.928Z,43.20
